Pisa / San Giusto - Galileo Galilei International Airport LIRP

Flugplatz Daten

Name: Pisa / San Giusto - Galileo Galilei International Airport

Ident: LIRP

Lat: 43,68389893

Long: 10,3927002

Platzhöhe: 6 ft

IataCode: PSA

City: Pisa

Homepage: http://www.pisa-airport.com/

Metar

2022/08/13 17:15
LIRP 131715Z 30007KT CAVOK 27/17 Q1011 NOSIG

Taf

2022/08/13 12:33
TAF TAF LIRP 131100Z 1312/1412 10007KT CAVOK
BECMG 1318/1320 33005KT 9999 FEW070
BECMG 1400/1402 16005KT CAVOK
Gewünschte Webcam nicht vorhanden? Dann fügen Sie eine hinzu. Sie wird dann so schnell wie möglich freigeschaltet
Url: Title: